createdAt,value
2018-03-08T00:01:27.729Z,46.57
2018-03-08T00:03:55.352Z,46.67
2018-03-08T00:06:37.566Z,41.60
2018-03-08T00:09:05.964Z,41.23
2018-03-08T00:11:33.580Z,42.90
2018-03-08T00:14:01.208Z,34.93
2018-03-08T00:16:28.828Z,36.57
2018-03-08T00:18:56.456Z,34.50
2018-03-08T00:21:24.080Z,36.87
2018-03-08T00:23:52.472Z,37.27
2018-03-08T00:26:20.089Z,33.17
2018-03-08T00:28:47.711Z,32.97
2018-03-08T00:31:15.341Z,39.43
2018-03-08T00:33:42.968Z,43.10
2018-03-08T00:36:10.592Z,36.20
2018-03-08T00:38:38.981Z,41.50
2018-03-08T00:41:07.376Z,38.10
2018-03-08T00:43:35.324Z,39.97
2018-03-08T00:46:02.950Z,35.97
2018-03-08T00:48:30.572Z,38.43
2018-03-08T00:50:58.211Z,41.43
2018-03-08T00:53:25.853Z,42.97
2018-03-08T00:55:54.245Z,44.27
2018-03-08T00:58:22.244Z,46.47
2018-03-08T01:00:49.874Z,44.80
2018-03-08T01:03:17.505Z,41.60
2018-03-08T01:05:45.464Z,36.83
2018-03-08T01:08:13.089Z,42.47
2018-03-08T01:10:40.717Z,41.43
2018-03-08T01:13:08.672Z,44.73
2018-03-08T01:15:41.638Z,46.57
2018-03-08T01:18:09.248Z,50.83
2018-03-08T01:20:36.872Z,50.17
2018-03-08T01:23:04.496Z,51.57
2018-03-08T01:25:32.127Z,58.97
2018-03-08T01:27:59.756Z,53.10
2018-03-08T01:30:27.384Z,63.50
2018-03-08T01:32:55.018Z,67.10
2018-03-08T01:35:23.401Z,68.67
2018-03-08T01:37:51.033Z,63.00
2018-03-08T01:40:19.128Z,68.77
2018-03-08T01:42:46.762Z,86.40
2018-03-08T01:45:14.394Z,83.40
2018-03-08T01:47:42.008Z,87.60
2018-03-08T01:50:13.162Z,104.43
2018-03-08T01:52:40.785Z,97.17
2018-03-08T01:55:08.414Z,87.73
2018-03-08T01:57:36.301Z,89.77
2018-03-08T02:00:03.924Z,94.43
2018-03-08T02:02:31.549Z,86.63
2018-03-08T02:04:59.181Z,84.43
2018-03-08T02:07:27.575Z,77.97
2018-03-08T02:09:55.203Z,88.43
2018-03-08T02:12:22.824Z,83.87
2018-03-08T02:14:50.453Z,77.70
2018-03-08T02:17:18.376Z,83.63
2018-03-08T02:19:46.005Z,71.33
2018-03-08T02:22:14.393Z,74.93
2018-03-08T02:24:46.232Z,81.23
2018-03-08T02:27:13.853Z,77.93
2018-03-08T02:29:41.468Z,77.73
2018-03-08T02:32:09.096Z,69.13
2018-03-08T02:34:36.716Z,69.47
2018-03-08T02:37:05.107Z,62.63
2018-03-08T02:39:33.164Z,68.40
2018-03-08T02:42:00.788Z,70.00
2018-03-08T02:44:28.416Z,68.50
2018-03-08T02:46:56.051Z,65.70
2018-03-08T02:49:23.684Z,76.33
2018-03-08T02:51:51.319Z,67.03
2018-03-08T02:54:19.262Z,61.20
2018-03-08T02:56:46.880Z,72.47
2018-03-08T02:59:14.515Z,57.20
2018-03-08T03:01:42.906Z,51.60
2018-03-08T03:04:10.537Z,52.73
2018-03-08T03:06:38.160Z,52.37
2018-03-08T03:09:05.799Z,51.57
2018-03-08T03:11:33.437Z,46.93
2018-03-08T03:14:01.069Z,39.43
2018-03-08T03:16:28.690Z,47.33
2018-03-08T03:18:57.085Z,43.70
2018-03-08T03:21:24.709Z,40.30
2018-03-08T03:23:52.333Z,36.50
2018-03-08T03:26:19.956Z,37.07
2018-03-08T03:28:47.588Z,47.07
2018-03-08T03:31:15.612Z,41.60
2018-03-08T03:33:44.005Z,43.00
2018-03-08T03:36:11.628Z,40.33
2018-03-08T03:38:39.621Z,38.27
2018-03-08T03:41:07.240Z,37.07
2018-03-08T03:43:34.877Z,44.43
2018-03-08T03:46:02.504Z,33.57
2018-03-08T03:48:30.125Z,34.43
2018-03-08T03:50:57.772Z,32.03
2018-03-08T03:53:26.161Z,37.10
2018-03-08T03:55:53.785Z,30.90
2018-03-08T03:58:21.396Z,37.90
2018-03-08T04:00:49.065Z,27.93
2018-03-08T04:03:16.657Z,39.07
2018-03-08T04:05:45.041Z,30.07
2018-03-08T04:08:12.683Z,29.70
2018-03-08T04:10:40.305Z,39.20
2018-03-08T04:13:07.941Z,24.57
2018-03-08T04:15:36.327Z,27.50
2018-03-08T04:18:03.962Z,27.13
2018-03-08T04:20:31.576Z,20.37
2018-03-08T04:22:59.198Z,26.00
2018-03-08T04:25:26.826Z,20.93
2018-03-08T04:27:54.451Z,28.90
2018-03-08T04:30:22.365Z,33.03
2018-03-08T04:32:50.003Z,17.30
2018-03-08T04:35:17.613Z,27.17
2018-03-08T04:37:46.013Z,24.23
2018-03-08T04:40:13.646Z,20.63
2018-03-08T04:42:41.304Z,23.10
2018-03-08T04:45:08.917Z,20.20
2018-03-08T04:47:38.489Z,20.67
2018-03-08T04:50:06.104Z,21.43
2018-03-08T04:52:33.745Z,26.03
2018-03-08T04:55:01.360Z,20.80
2018-03-08T04:57:28.985Z,19.77
2018-03-08T04:59:56.605Z,17.60
2018-03-08T05:02:25.140Z,19.87
2018-03-08T05:04:53.076Z,11.63
2018-03-08T05:07:20.685Z,16.87
2018-03-08T05:09:48.316Z,18.37
2018-03-08T05:12:17.213Z,22.17
2018-03-08T05:14:45.604Z,13.40
2018-03-08T05:17:13.989Z,14.83
2018-03-08T05:19:42.385Z,16.83
2018-03-08T05:22:09.996Z,16.57
2018-03-08T05:24:44.192Z,14.77
2018-03-08T05:27:11.809Z,11.50
2018-03-08T05:29:40.519Z,16.47
2018-03-08T05:32:08.956Z,13.87
2018-03-08T05:34:36.568Z,12.63
2018-03-08T05:37:04.193Z,13.70
2018-03-08T05:39:31.830Z,13.83
2018-03-08T05:42:11.473Z,15.33
2018-03-08T05:44:39.089Z,17.97
2018-03-08T05:47:07.480Z,13.90
2018-03-08T05:49:35.868Z,18.30
2018-03-08T05:52:09.417Z,12.83
2018-03-08T05:54:37.065Z,14.50
2018-03-08T05:57:05.418Z,17.80
2018-03-08T05:59:33.812Z,15.40
2018-03-08T06:02:01.462Z,20.63
2018-03-08T06:04:29.076Z,20.63
2018-03-08T06:06:56.707Z,20.47
2018-03-08T06:09:24.343Z,19.27
2018-03-08T06:11:51.961Z,15.77
2018-03-08T06:14:19.587Z,17.23
2018-03-08T06:16:50.001Z,21.23
2018-03-08T06:19:17.611Z,17.80
2018-03-08T06:21:45.240Z,19.03
2018-03-08T06:24:12.849Z,19.93
2018-03-08T06:26:40.477Z,15.30
2018-03-08T06:29:08.863Z,17.00
2018-03-08T06:31:37.351Z,15.10
2018-03-08T06:34:05.740Z,19.00
2018-03-08T06:36:34.120Z,16.40
2018-03-08T06:39:01.762Z,15.97
2018-03-08T06:41:29.378Z,16.37
2018-03-08T06:43:56.988Z,21.47
2018-03-08T06:46:24.608Z,18.83
2018-03-08T06:48:52.233Z,20.03
2018-03-08T06:51:19.864Z,11.30
2018-03-08T06:53:47.496Z,14.93
2018-03-08T06:56:15.114Z,16.27
2018-03-08T06:58:42.729Z,12.30
2018-03-08T07:01:10.351Z,13.60
2018-03-08T07:03:37.965Z,18.57
2018-03-08T07:06:05.588Z,13.33
2018-03-08T07:08:33.213Z,13.33
2018-03-08T07:11:00.836Z,15.30
2018-03-08T07:13:29.229Z,12.57
2018-03-08T07:15:56.892Z,19.43
2018-03-08T07:18:25.276Z,15.83
2018-03-08T07:20:53.669Z,13.97
2018-03-08T07:23:21.300Z,16.93
2018-03-08T07:25:48.919Z,14.10
2018-03-08T07:28:17.541Z,9.77
2018-03-08T07:30:45.923Z,13.80
2018-03-08T07:33:13.548Z,11.20
2018-03-08T07:35:41.171Z,18.57
2018-03-08T07:38:08.828Z,14.87
2018-03-08T07:40:36.453Z,13.73
2018-03-08T07:43:04.079Z,13.17
2018-03-08T07:45:31.696Z,12.27
2018-03-08T07:47:59.326Z,11.83
2018-03-08T07:50:27.716Z,10.03
2018-03-08T07:52:55.349Z,13.17
2018-03-08T07:55:23.030Z,13.20
2018-03-08T07:57:51.431Z,12.93
2018-03-08T08:00:19.135Z,12.03
2018-03-08T08:02:46.752Z,10.40
2018-03-08T08:05:26.680Z,14.97
2018-03-08T08:10:56.217Z,12.80
2018-03-08T08:13:23.838Z,13.87
2018-03-08T08:15:51.500Z,11.13
2018-03-08T08:18:19.070Z,14.87
2018-03-08T08:20:46.726Z,12.17
2018-03-08T08:23:14.757Z,13.03
2018-03-08T08:25:43.142Z,11.10
2018-03-08T08:28:10.754Z,11.90
2018-03-08T08:30:38.377Z,10.53
2018-03-08T08:33:06.005Z,13.83
2018-03-08T08:35:33.657Z,13.57
2018-03-08T08:38:01.335Z,9.93
2018-03-08T08:40:28.966Z,10.67
2018-03-08T08:42:56.568Z,12.90
2018-03-08T08:45:24.189Z,10.03
2018-03-08T08:47:51.813Z,11.90
2018-03-08T08:50:19.437Z,7.57
2018-03-08T08:52:47.061Z,10.23
2018-03-08T08:55:15.452Z,10.30
2018-03-08T08:57:43.089Z,7.50
2018-03-08T09:00:11.525Z,8.63
2018-03-08T09:02:39.086Z,8.90
2018-03-08T09:05:06.704Z,11.47
2018-03-08T09:07:34.348Z,8.40
2018-03-08T09:10:01.945Z,9.60
2018-03-08T09:12:30.328Z,13.77
2018-03-08T09:14:58.712Z,12.10
2018-03-08T09:17:27.101Z,10.83
2018-03-08T09:19:54.722Z,12.20
2018-03-08T09:22:22.336Z,7.53
2018-03-08T09:24:50.720Z,10.73
2018-03-08T09:27:19.105Z,11.33
2018-03-08T09:29:47.500Z,11.17
2018-03-08T09:32:15.117Z,9.90
2018-03-08T09:34:42.740Z,8.23
2018-03-08T09:37:10.353Z,15.37
2018-03-08T09:39:37.969Z,7.93
2018-03-08T09:42:05.588Z,8.07
2018-03-08T09:44:33.213Z,10.07
2018-03-08T09:47:00.822Z,9.93
2018-03-08T09:49:28.444Z,9.17
2018-03-08T09:51:56.093Z,10.87
2018-03-08T09:54:23.717Z,6.23
2018-03-08T09:56:51.353Z,8.93
2018-03-08T09:59:18.961Z,9.07
2018-03-08T10:01:46.585Z,9.50
2018-03-08T10:04:14.568Z,7.20
2018-03-08T10:06:42.201Z,11.00
2018-03-08T10:09:09.838Z,7.77
2018-03-08T10:11:37.440Z,7.40
2018-03-08T10:14:05.064Z,8.90
2018-03-08T10:16:33.444Z,8.60
2018-03-08T10:19:01.827Z,5.63
2018-03-08T10:21:44.453Z,5.77
2018-03-08T10:23:57.057Z,12.83
2018-03-08T10:26:24.672Z,14.30
2018-03-08T10:28:52.302Z,6.60
2018-03-08T10:31:19.934Z,6.10
2018-03-08T10:33:47.549Z,8.03
2018-03-08T10:36:15.924Z,8.43
2018-03-08T10:38:44.309Z,6.00
2018-03-08T10:41:12.733Z,6.87
2018-03-08T10:43:41.075Z,7.20
2018-03-08T10:46:08.690Z,7.17
2018-03-08T10:48:36.312Z,7.47
2018-03-08T10:51:03.936Z,9.20
2018-03-08T10:53:31.562Z,7.07
2018-03-08T10:55:59.189Z,7.57
2018-03-08T10:58:27.156Z,6.00
2018-03-08T11:00:54.785Z,8.67
2018-03-08T11:03:22.401Z,9.23
2018-03-08T11:05:51.072Z,5.53
2018-03-08T11:08:18.701Z,6.63
2018-03-08T11:10:46.313Z,9.53
2018-03-08T11:13:13.928Z,8.43
2018-03-08T11:15:41.632Z,8.57
2018-03-08T11:18:09.292Z,8.70
2018-03-08T11:20:37.186Z,6.87
2018-03-08T11:23:04.793Z,6.03
2018-03-08T11:25:32.404Z,9.13
2018-03-08T11:28:00.018Z,6.00
2018-03-08T11:30:27.669Z,5.83
2018-03-08T11:32:55.248Z,5.13
2018-03-08T11:35:22.888Z,5.30
2018-03-08T11:37:51.266Z,6.00
2018-03-08T11:40:19.662Z,4.50
2018-03-08T11:42:48.057Z,5.93
2018-03-08T11:45:15.680Z,6.93
2018-03-08T11:47:43.305Z,6.20
2018-03-08T11:50:10.940Z,6.60
2018-03-08T11:52:39.316Z,8.20
2018-03-08T11:55:07.706Z,4.10
2018-03-08T11:57:36.093Z,4.10
2018-03-08T12:00:04.476Z,5.40
2018-03-08T12:02:32.093Z,6.33
2018-03-08T12:04:59.708Z,7.00
2018-03-08T12:07:27.320Z,5.43
2018-03-08T12:09:55.238Z,4.93
2018-03-08T12:12:23.646Z,6.23
2018-03-08T12:14:51.260Z,3.80
2018-03-08T12:17:18.876Z,6.20
2018-03-08T12:19:46.493Z,8.57
2018-03-08T12:22:14.114Z,6.53
2018-03-08T12:24:41.728Z,3.83
2018-03-08T12:27:09.376Z,5.87
2018-03-08T12:29:36.964Z,6.95
2018-03-08T12:32:05.340Z,3.83
2018-03-08T12:34:32.958Z,5.33
2018-03-08T12:37:00.574Z,3.23
2018-03-08T12:39:28.188Z,5.00
2018-03-08T12:41:55.818Z,4.90
2018-03-08T12:44:23.448Z,6.30
2018-03-08T12:46:51.068Z,3.73
2018-03-08T12:49:19.460Z,2.27
2018-03-08T12:51:47.118Z,5.20
2018-03-08T12:54:15.487Z,1.90
2018-03-08T12:56:43.868Z,2.73
2018-03-08T12:59:11.856Z,5.23
2018-03-08T13:01:40.236Z,6.03
2018-03-08T13:04:08.666Z,5.67
2018-03-08T13:06:41.782Z,4.20
2018-03-08T13:09:09.390Z,6.80
2018-03-08T13:11:37.011Z,1.90
2018-03-08T13:14:04.624Z,4.60
2018-03-08T13:16:32.250Z,6.33
2018-03-08T13:18:59.885Z,3.17
2018-03-08T13:21:27.506Z,4.23
2018-03-08T13:23:55.880Z,4.10
2018-03-08T13:26:24.272Z,8.57
2018-03-08T13:28:51.891Z,7.07
2018-03-08T13:31:19.510Z,9.43
2018-03-08T13:33:47.888Z,9.07
2018-03-08T13:36:15.502Z,9.13
2018-03-08T13:38:43.124Z,3.23
2018-03-08T13:41:10.740Z,3.67
2018-03-08T13:43:38.376Z,6.83
2018-03-08T13:46:05.980Z,3.63
2018-03-08T13:48:33.682Z,4.27
2018-03-08T13:51:02.056Z,4.37
2018-03-08T13:53:30.442Z,5.43
2018-03-08T13:55:58.829Z,11.90
2018-03-08T13:58:27.214Z,7.03
2018-03-08T14:01:03.225Z,7.37
2018-03-08T14:03:30.849Z,4.83
2018-03-08T14:05:59.223Z,8.63
2018-03-08T14:08:31.188Z,4.70
2018-03-08T14:10:59.557Z,6.80
2018-03-08T14:13:27.961Z,4.93
2018-03-08T14:15:56.719Z,10.53
2018-03-08T14:18:25.112Z,6.90
2018-03-08T14:20:52.725Z,5.37
2018-03-08T14:23:20.336Z,5.60
2018-03-08T14:25:47.967Z,5.73
2018-03-08T14:28:15.590Z,8.63
2018-03-08T14:30:43.974Z,4.87
2018-03-08T14:33:12.364Z,7.63
2018-03-08T14:35:40.741Z,9.27
2018-03-08T14:38:09.165Z,5.40
2018-03-08T14:40:36.782Z,4.00
2018-03-08T14:43:04.797Z,3.30
2018-03-08T14:45:32.413Z,7.50
2018-03-08T14:48:00.036Z,5.67
2018-03-08T14:50:27.664Z,7.10
2018-03-08T14:52:56.047Z,8.73
2018-03-08T14:55:23.723Z,6.67
2018-03-08T14:57:51.336Z,6.47
2018-03-08T15:00:19.087Z,9.33
2018-03-08T15:02:46.693Z,5.17
2018-03-08T15:05:14.317Z,9.17
2018-03-08T15:07:41.928Z,9.20
2018-03-08T15:10:10.313Z,5.97
2018-03-08T15:12:37.935Z,9.07
2018-03-08T15:15:05.576Z,9.33
2018-03-08T15:17:33.196Z,10.07
2018-03-08T15:20:00.809Z,7.67
2018-03-08T15:22:28.677Z,8.10
2018-03-08T15:24:56.313Z,5.30
2018-03-08T15:27:23.947Z,5.10
2018-03-08T15:29:51.565Z,5.10
2018-03-08T15:32:21.954Z,6.83
2018-03-08T15:34:49.592Z,12.03
2018-03-08T15:37:17.221Z,9.27
2018-03-08T15:39:45.603Z,5.33
2018-03-08T15:42:13.253Z,8.57
2018-03-08T15:44:52.760Z,8.20
2018-03-08T15:47:20.372Z,13.50
2018-03-08T15:49:48.013Z,9.40
2018-03-08T15:52:15.620Z,8.80
2018-03-08T15:54:43.253Z,9.17
2018-03-08T15:57:10.868Z,8.57
2018-03-08T15:59:38.488Z,4.23
2018-03-08T16:02:06.880Z,5.63
2018-03-08T16:04:35.258Z,8.43
2018-03-08T16:10:23.916Z,8.03
2018-03-08T16:12:52.299Z,5.93
2018-03-08T16:15:20.688Z,9.73
2018-03-08T16:17:49.095Z,6.30
2018-03-08T16:20:16.688Z,10.57
2018-03-08T16:22:44.307Z,9.03
2018-03-08T16:25:25.865Z,7.00
2018-03-08T16:27:54.245Z,6.53
2018-03-08T16:30:21.859Z,5.73
2018-03-08T16:32:49.475Z,8.50
2018-03-08T16:35:17.125Z,5.83
2018-03-08T16:37:44.756Z,7.30
2018-03-08T16:40:23.292Z,6.70
2018-03-08T16:42:50.928Z,7.43
2018-03-08T16:45:18.541Z,8.47
2018-03-08T16:47:46.153Z,6.70
2018-03-08T16:50:13.792Z,5.60
2018-03-08T16:52:42.183Z,6.03
2018-03-08T16:55:10.576Z,7.07
2018-03-08T16:57:38.188Z,5.20
2018-03-08T17:00:05.822Z,6.70
2018-03-08T17:02:33.428Z,6.23
2018-03-08T17:05:01.044Z,8.70
2018-03-08T17:07:28.669Z,4.70
2018-03-08T17:09:56.277Z,3.80
2018-03-08T17:12:23.901Z,5.77
2018-03-08T17:14:51.514Z,4.67
2018-03-08T17:17:19.128Z,7.47
2018-03-08T17:19:47.715Z,4.07
2018-03-08T17:22:15.328Z,4.43
2018-03-08T17:24:42.944Z,4.03
2018-03-08T17:27:10.573Z,4.57
2018-03-08T17:29:38.182Z,3.73
2018-03-08T17:32:05.897Z,5.83
2018-03-08T17:34:33.512Z,4.73
2018-03-08T17:37:01.130Z,5.27
2018-03-08T17:39:28.747Z,5.43
2018-03-08T17:41:56.357Z,5.70
2018-03-08T17:44:23.978Z,5.90
2018-03-08T17:46:51.641Z,7.00
2018-03-08T17:49:19.253Z,5.60
2018-03-08T17:51:46.870Z,6.43
2018-03-08T17:54:14.496Z,7.60
2018-03-08T17:56:42.116Z,8.27
2018-03-08T17:59:12.733Z,7.00
2018-03-08T18:01:40.729Z,9.77
2018-03-08T18:04:08.341Z,9.67
2018-03-08T18:06:42.680Z,6.90
2018-03-08T18:09:10.301Z,6.43
2018-03-08T18:11:37.921Z,9.43
2018-03-08T18:14:05.553Z,4.60
2018-03-08T18:16:33.174Z,5.23
2018-03-08T18:19:00.811Z,6.03
2018-03-08T18:21:28.419Z,5.93
2018-03-08T18:23:56.797Z,6.03
2018-03-08T18:26:25.196Z,5.60
2018-03-08T18:28:53.573Z,8.23
2018-03-08T18:31:21.193Z,8.03
2018-03-08T18:33:48.834Z,4.53
2018-03-08T18:36:16.460Z,5.87
2018-03-08T18:41:18.564Z,10.30
2018-03-08T18:43:46.188Z,9.87
2018-03-08T18:46:18.904Z,6.13
2018-03-08T18:48:47.282Z,8.30
2018-03-08T18:51:15.676Z,7.73
2018-03-08T18:53:44.057Z,7.83
2018-03-08T18:56:12.436Z,6.93
2018-03-08T18:58:40.878Z,7.40
2018-03-08T19:01:09.201Z,7.80
2018-03-08T19:03:37.576Z,11.83
2018-03-08T19:06:06.261Z,10.20
2018-03-08T19:08:33.873Z,9.43
2018-03-08T19:11:01.489Z,9.30
2018-03-08T19:13:29.164Z,11.47
2018-03-08T19:15:56.721Z,13.77
2018-03-08T19:18:24.336Z,14.00
2018-03-08T19:20:53.914Z,13.83
2018-03-08T19:23:21.548Z,14.57
2018-03-08T19:34:10.956Z,5.20
2018-03-08T19:36:40.378Z,6.00
2018-03-08T19:39:08.816Z,7.30
2018-03-08T19:41:36.471Z,5.57
2018-03-08T19:44:05.692Z,2.90
2018-03-08T19:46:34.314Z,4.63
2018-03-08T19:49:02.302Z,3.77
2018-03-08T19:51:29.909Z,3.40
2018-03-08T19:53:57.533Z,4.23
2018-03-08T19:56:25.944Z,3.53
2018-03-08T19:58:53.921Z,5.37
2018-03-08T20:01:21.623Z,6.05
2018-03-08T20:03:49.237Z,5.77
2018-03-08T20:06:20.549Z,3.47
2018-03-08T20:08:48.173Z,5.83
2018-03-08T20:11:15.790Z,5.53
2018-03-08T20:13:43.425Z,4.10
2018-03-08T20:16:11.047Z,4.30
2018-03-08T20:18:38.673Z,5.27
2018-03-08T20:21:06.389Z,3.60
2018-03-08T20:23:34.007Z,5.13
2018-03-08T20:26:01.741Z,6.80
2018-03-08T20:28:29.354Z,4.83
2018-03-08T20:30:56.965Z,5.93
2018-03-08T20:33:30.281Z,5.67
2018-03-08T20:35:57.910Z,8.17
2018-03-08T20:38:26.281Z,9.50
2018-03-08T20:40:54.688Z,11.53
2018-03-08T20:43:22.319Z,14.03
2018-03-08T20:45:49.933Z,12.27
2018-03-08T20:48:17.565Z,12.53
2018-03-08T20:50:46.002Z,14.50
2018-03-08T20:53:13.624Z,11.13
2018-03-08T20:55:42.006Z,13.93
2018-03-08T20:58:09.897Z,14.93
2018-03-08T21:00:37.519Z,9.50
2018-03-08T21:03:05.150Z,10.17
2018-03-08T21:05:32.771Z,9.70
2018-03-08T21:08:07.267Z,16.23
2018-03-08T21:10:34.902Z,14.47
2018-03-08T21:13:02.530Z,14.30
2018-03-08T21:15:30.916Z,12.07
2018-03-08T21:17:59.301Z,11.97
2018-03-08T21:20:26.999Z,11.87
2018-03-08T21:22:54.607Z,11.77
2018-03-08T21:25:22.257Z,10.73
2018-03-08T21:27:49.908Z,15.80
2018-03-08T21:30:17.537Z,16.50
2018-03-08T21:32:45.152Z,11.50
2018-03-08T21:35:12.781Z,10.87
2018-03-08T21:37:40.421Z,12.30
2018-03-08T21:40:08.810Z,12.70
2018-03-08T21:42:37.220Z,10.87
2018-03-08T21:45:04.837Z,14.93
2018-03-08T21:47:32.455Z,16.27
2018-03-08T21:50:00.081Z,10.90
2018-03-08T21:52:28.465Z,8.23
2018-03-08T21:54:56.848Z,13.53
2018-03-08T21:57:25.228Z,11.10
2018-03-08T21:59:53.612Z,8.60
2018-03-08T22:02:21.993Z,14.73
2018-03-08T22:04:50.277Z,9.80
2018-03-08T22:07:19.668Z,9.83
2018-03-08T22:09:47.286Z,12.60
2018-03-08T22:12:14.960Z,11.57
2018-03-08T22:14:42.565Z,10.10
2018-03-08T22:17:10.211Z,14.90
2018-03-08T22:19:37.841Z,9.47
2018-03-08T22:22:05.460Z,13.30
2018-03-08T22:24:33.097Z,8.43
2018-03-08T22:27:00.704Z,11.90
2018-03-08T22:29:28.312Z,13.33
2018-03-08T22:31:55.945Z,14.00
2018-03-08T22:34:24.338Z,10.00
2018-03-08T22:36:52.719Z,8.47
2018-03-08T22:39:20.337Z,14.43
2018-03-08T22:41:47.998Z,14.23
2018-03-08T22:44:15.924Z,10.77
2018-03-08T22:46:43.549Z,8.20
2018-03-08T22:49:11.157Z,8.60
2018-03-08T22:51:38.796Z,6.63
2018-03-08T22:54:06.411Z,8.43
2018-03-08T22:56:34.019Z,9.83
2018-03-08T22:59:01.640Z,15.03
2018-03-08T23:04:52.192Z,9.87
2018-03-08T23:07:19.813Z,10.13
2018-03-08T23:09:47.429Z,10.67
2018-03-08T23:12:16.108Z,9.20
2018-03-08T23:14:43.750Z,13.57
2018-03-08T23:17:11.366Z,8.63
2018-03-08T23:19:38.981Z,5.60
2018-03-08T23:22:06.602Z,12.50
2018-03-08T23:24:34.221Z,6.63
2018-03-08T23:27:01.841Z,8.70
2018-03-08T23:29:29.479Z,11.17
2018-03-08T23:31:57.865Z,12.87
2018-03-08T23:34:26.250Z,13.27
2018-03-08T23:36:54.650Z,13.30
2018-03-08T23:39:23.043Z,8.77
2018-03-08T23:41:50.641Z,8.30
2018-03-08T23:44:18.264Z,11.30
2018-03-08T23:46:46.637Z,10.47
2018-03-08T23:49:14.266Z,13.53
2018-03-08T23:51:42.265Z,10.27
2018-03-08T23:54:10.649Z,12.77
2018-03-08T23:56:38.280Z,7.30
2018-03-08T23:59:05.919Z,8.17
